sensor_id;sensor_type;location;lat;lon;timestamp;pressure;altitude;pressure_sealevel;temperature;humidity
41254;BME280;26987;59.928;30.306;2022-12-18T00:00:59;102419.72;;;-5.93;80.38
41254;BME280;26987;59.928;30.306;2022-12-18T00:03:26;102416.19;;;-5.92;80.10
41254;BME280;26987;59.928;30.306;2022-12-18T00:05:54;102431.66;;;-5.86;79.43
41254;BME280;26987;59.928;30.306;2022-12-18T00:08:22;102442.22;;;-5.89;79.60
41254;BME280;26987;59.928;30.306;2022-12-18T00:10:51;102432.38;;;-5.83;80.35
41254;BME280;26987;59.928;30.306;2022-12-18T00:13:19;102429.34;;;-5.72;80.51
41254;BME280;26987;59.928;30.306;2022-12-18T00:15:46;102444.75;;;-5.64;79.65
41254;BME280;26987;59.928;30.306;2022-12-18T00:18:14;102433.00;;;-5.76;79.11
41254;BME280;26987;59.928;30.306;2022-12-18T00:20:41;102431.97;;;-5.96;79.41
41254;BME280;26987;59.928;30.306;2022-12-18T00:23:09;102421.34;;;-6.13;80.11
41254;BME280;26987;59.928;30.306;2022-12-18T00:25:37;102425.03;;;-6.19;80.19
41254;BME280;26987;59.928;30.306;2022-12-18T00:28:06;102373.25;;;-6.57;80.98
41254;BME280;26987;59.928;30.306;2022-12-18T00:30:33;102421.22;;;-6.34;80.51
41254;BME280;26987;59.928;30.306;2022-12-18T00:33:01;102422.41;;;-6.44;80.83
41254;BME280;26987;59.928;30.306;2022-12-18T00:35:29;102410.59;;;-6.55;81.84
41254;BME280;26987;59.928;30.306;2022-12-18T00:37:56;102414.72;;;-6.48;82.53
41254;BME280;26987;59.928;30.306;2022-12-18T00:40:24;102413.84;;;-6.48;81.63
41254;BME280;26987;59.928;30.306;2022-12-18T00:42:53;102374.75;;;-6.75;82.03
41254;BME280;26987;59.928;30.306;2022-12-18T00:45:26;102393.28;;;-6.57;82.65
41254;BME280;26987;59.928;30.306;2022-12-18T00:47:54;102405.97;;;-6.47;82.45
41254;BME280;26987;59.928;30.306;2022-12-18T00:50:23;102405.91;;;-6.45;82.18
41254;BME280;26987;59.928;30.306;2022-12-18T00:52:51;102375.56;;;-6.48;82.42
41254;BME280;26987;59.928;30.306;2022-12-18T00:55:19;102391.50;;;-6.31;82.20
41254;BME280;26987;59.928;30.306;2022-12-18T00:57:47;102389.41;;;-6.22;81.33
41254;BME280;26987;59.928;30.306;2022-12-18T01:00:15;102406.28;;;-6.06;80.78
41254;BME280;26987;59.928;30.306;2022-12-18T01:02:44;102396.44;;;-6.00;81.38
41254;BME280;26987;59.928;30.306;2022-12-18T01:05:12;102399.31;;;-6.06;80.35
41254;BME280;26987;59.928;30.306;2022-12-18T01:07:40;102399.66;;;-5.93;80.74
41254;BME280;26987;59.928;30.306;2022-12-18T01:10:10;102381.47;;;-5.96;81.13
41254;BME280;26987;59.928;30.306;2022-12-18T01:12:39;102400.78;;;-5.76;80.44
41254;BME280;26987;59.928;30.306;2022-12-18T01:15:08;102399.81;;;-5.74;80.49
41254;BME280;26987;59.928;30.306;2022-12-18T01:17:37;102388.41;;;-5.71;80.18
41254;BME280;26987;59.928;30.306;2022-12-18T01:20:07;102394.16;;;-5.63;80.03
41254;BME280;26987;59.928;30.306;2022-12-18T01:22:35;102390.72;;;-5.63;80.47
41254;BME280;26987;59.928;30.306;2022-12-18T01:25:04;102390.66;;;-5.62;80.02
41254;BME280;26987;59.928;30.306;2022-12-18T01:27:33;102335.72;;;-5.84;80.91
41254;BME280;26987;59.928;30.306;2022-12-18T01:30:04;102378.13;;;-5.53;81.27
41254;BME280;26987;59.928;30.306;2022-12-18T01:32:32;102346.53;;;-5.70;81.75
41254;BME280;26987;59.928;30.306;2022-12-18T01:35:02;102378.53;;;-5.42;81.29
41254;BME280;26987;59.928;30.306;2022-12-18T01:37:31;102380.25;;;-5.41;81.59
41254;BME280;26987;59.928;30.306;2022-12-18T01:39:59;102380.22;;;-5.39;80.79
41254;BME280;26987;59.928;30.306;2022-12-18T01:42:26;102389.00;;;-5.42;80.54
41254;BME280;26987;59.928;30.306;2022-12-18T01:45:05;102392.34;;;-5.38;80.11
41254;BME280;26987;59.928;30.306;2022-12-18T01:47:38;102387.25;;;-5.41;79.58
41254;BME280;26987;59.928;30.306;2022-12-18T01:50:10;102386.94;;;-5.56;79.24
41254;BME280;26987;59.928;30.306;2022-12-18T01:52:41;102393.69;;;-5.73;79.98
41254;BME280;26987;59.928;30.306;2022-12-18T01:55:11;102395.78;;;-5.83;80.22
41254;BME280;26987;59.928;30.306;2022-12-18T01:57:40;102400.06;;;-5.80;80.90
41254;BME280;26987;59.928;30.306;2022-12-18T02:00:12;102387.66;;;-5.75;81.93
41254;BME280;26987;59.928;30.306;2022-12-18T02:02:41;102390.84;;;-5.66;82.11
41254;BME280;26987;59.928;30.306;2022-12-18T02:05:10;102386.31;;;-5.63;82.30
41254;BME280;26987;59.928;30.306;2022-12-18T02:07:45;102390.47;;;-5.57;81.39
41254;BME280;26987;59.928;30.306;2022-12-18T02:10:20;102388.69;;;-5.57;82.00
41254;BME280;26987;59.928;30.306;2022-12-18T02:12:55;102338.16;;;-5.79;81.00
41254;BME280;26987;59.928;30.306;2022-12-18T02:15:31;102392.94;;;-5.54;80.81
41254;BME280;26987;59.928;30.306;2022-12-18T02:18:07;102378.13;;;-5.53;80.78
41254;BME280;26987;59.928;30.306;2022-12-18T02:20:43;102358.78;;;-5.72;79.58
41254;BME280;26987;59.928;30.306;2022-12-18T02:23:24;102377.31;;;-5.55;79.61
41254;BME280;26987;59.928;30.306;2022-12-18T02:26:14;102379.88;;;-5.54;79.96
41254;BME280;26987;59.928;30.306;2022-12-18T02:28:47;102307.66;;;-6.01;80.14
41254;BME280;26987;59.928;30.306;2022-12-18T02:31:21;102376.50;;;-5.56;80.57
41254;BME280;26987;59.928;30.306;2022-12-18T02:33:52;102376.44;;;-5.54;79.84
41254;BME280;26987;59.928;30.306;2022-12-18T02:36:24;102366.03;;;-5.56;80.75
41254;BME280;26987;59.928;30.306;2022-12-18T02:38:55;102366.03;;;-5.56;80.48
41254;BME280;26987;59.928;30.306;2022-12-18T02:41:27;102369.25;;;-5.49;80.91
41254;BME280;26987;59.928;30.306;2022-12-18T02:43:57;102368.19;;;-5.45;80.71
41254;BME280;26987;59.928;30.306;2022-12-18T02:46:30;102367.25;;;-5.42;81.39
41254;BME280;26987;59.928;30.306;2022-12-18T02:49:13;102366.94;;;-5.35;81.49
41254;BME280;26987;59.928;30.306;2022-12-18T02:51:51;102367.91;;;-5.37;81.05
41254;BME280;26987;59.928;30.306;2022-12-18T02:54:34;102371.13;;;-5.30;81.73
41254;BME280;26987;59.928;30.306;2022-12-18T02:57:13;102369.63;;;-5.36;80.27
41254;BME280;26987;59.928;30.306;2022-12-18T02:59:52;102358.59;;;-5.45;79.82
41254;BME280;26987;59.928;30.306;2022-12-18T03:02:26;102361.91;;;-5.39;80.17
41254;BME280;26987;59.928;30.306;2022-12-18T03:05:01;102346.94;;;-5.58;81.58
41254;BME280;26987;59.928;30.306;2022-12-18T03:07:37;102375.81;;;-5.39;81.86
41254;BME280;26987;59.928;30.306;2022-12-18T03:10:13;102370.63;;;-5.40;82.08
41254;BME280;26987;59.928;30.306;2022-12-18T03:12:47;102362.03;;;-5.42;82.36
41254;BME280;26987;59.928;30.306;2022-12-18T03:15:22;102372.34;;;-5.39;82.43
41254;BME280;26987;59.928;30.306;2022-12-18T03:18:04;102372.59;;;-5.46;82.23
41254;BME280;26987;59.928;30.306;2022-12-18T03:20:35;102367.66;;;-5.53;82.72
41254;BME280;26987;59.928;30.306;2022-12-18T03:23:08;102372.84;;;-5.52;82.76
41254;BME280;26987;59.928;30.306;2022-12-18T03:25:40;102369.41;;;-5.54;81.98
41254;BME280;26987;59.928;30.306;2022-12-18T03:28:13;102371.03;;;-5.50;81.97
41254;BME280;26987;59.928;30.306;2022-12-18T03:30:45;102376.25;;;-5.50;82.28
41254;BME280;26987;59.928;30.306;2022-12-18T03:33:17;102376.03;;;-5.45;82.94
41254;BME280;26987;59.928;30.306;2022-12-18T03:35:49;102370.09;;;-5.49;82.05
41254;BME280;26987;59.928;30.306;2022-12-18T03:38:18;102361.69;;;-5.57;82.13
41254;BME280;26987;59.928;30.306;2022-12-18T03:40:56;102376.03;;;-5.45;81.45
41254;BME280;26987;59.928;30.306;2022-12-18T03:43:36;102376.84;;;-5.43;81.56
41254;BME280;26987;59.928;30.306;2022-12-18T03:46:13;102374.41;;;-5.48;81.56
41254;BME280;26987;59.928;30.306;2022-12-18T03:48:44;102385.13;;;-5.54;81.37
41254;BME280;26987;59.928;30.306;2022-12-18T03:51:23;102384.41;;;-5.58;82.04
41254;BME280;26987;59.928;30.306;2022-12-18T03:53:56;102389.69;;;-5.59;81.94
41254;BME280;26987;59.928;30.306;2022-12-18T03:56:32;102362.50;;;-5.77;81.49
41254;BME280;26987;59.928;30.306;2022-12-18T03:59:03;102385.28;;;-5.59;81.31
41254;BME280;26987;59.928;30.306;2022-12-18T04:01:35;102382.66;;;-5.59;81.88
41254;BME280;26987;59.928;30.306;2022-12-18T04:04:05;102388.16;;;-5.65;81.52
41254;BME280;26987;59.928;30.306;2022-12-18T04:06:37;102377.81;;;-5.68;82.31
41254;BME280;26987;59.928;30.306;2022-12-18T04:09:07;102361.63;;;-5.78;81.67
41254;BME280;26987;59.928;30.306;2022-12-18T04:11:39;102373.31;;;-5.64;82.12
41254;BME280;26987;59.928;30.306;2022-12-18T04:14:10;102369.66;;;-5.60;82.56
41254;BME280;26987;59.928;30.306;2022-12-18T04:16:38;102370.53;;;-5.60;82.19
41254;BME280;26987;59.928;30.306;2022-12-18T04:19:10;102233.31;;;-6.37;81.70
41254;BME280;26987;59.928;30.306;2022-12-18T04:21:40;102362.78;;;-5.63;81.77
41254;BME280;26987;59.928;30.306;2022-12-18T04:24:10;102369.13;;;-5.68;81.23
41254;BME280;26987;59.928;30.306;2022-12-18T04:26:43;102361.53;;;-5.75;81.46
41254;BME280;26987;59.928;30.306;2022-12-18T04:29:23;102367.84;;;-5.80;82.41
41254;BME280;26987;59.928;30.306;2022-12-18T04:31:51;102365.16;;;-5.79;82.67
41254;BME280;26987;59.928;30.306;2022-12-18T04:34:20;102367.66;;;-5.76;82.64
41254;BME280;26987;59.928;30.306;2022-12-18T04:36:52;102370.41;;;-5.79;82.95
41254;BME280;26987;59.928;30.306;2022-12-18T04:39:21;102383.53;;;-5.80;82.60
41254;BME280;26987;59.928;30.306;2022-12-18T04:41:51;102389.63;;;-5.80;82.22
41254;BME280;26987;59.928;30.306;2022-12-18T04:44:19;102386.19;;;-5.82;81.78
41254;BME280;26987;59.928;30.306;2022-12-18T04:46:48;102369.22;;;-5.94;82.07
41254;BME280;26987;59.928;30.306;2022-12-18T04:49:15;102374.94;;;-5.84;82.14
41254;BME280;26987;59.928;30.306;2022-12-18T04:51:43;102382.72;;;-5.83;83.03
41254;BME280;26987;59.928;30.306;2022-12-18T04:54:11;102363.19;;;-5.96;82.46
41254;BME280;26987;59.928;30.306;2022-12-18T04:56:38;102368.47;;;-5.98;82.73
41254;BME280;26987;59.928;30.306;2022-12-18T04:59:06;102350.41;;;-6.26;82.51
41254;BME280;26987;59.928;30.306;2022-12-18T05:01:34;102357.78;;;-6.14;83.59
41254;BME280;26987;59.928;30.306;2022-12-18T05:04:04;102374.69;;;-6.00;84.26
41254;BME280;26987;59.928;30.306;2022-12-18T05:06:32;102364.06;;;-5.96;83.42
41254;BME280;26987;59.928;30.306;2022-12-18T05:08:59;102355.56;;;-6.02;83.60
41254;BME280;26987;59.928;30.306;2022-12-18T05:11:27;102370.91;;;-5.93;83.25
41254;BME280;26987;59.928;30.306;2022-12-18T05:13:56;102377.97;;;-5.95;83.63
41254;BME280;26987;59.928;30.306;2022-12-18T05:16:24;102373.69;;;-5.98;83.00
41254;BME280;26987;59.928;30.306;2022-12-18T05:18:52;102365.03;;;-5.98;83.35
41254;BME280;26987;59.928;30.306;2022-12-18T05:21:21;102353.09;;;-6.04;82.64
41254;BME280;26987;59.928;30.306;2022-12-18T05:23:48;102340.94;;;-6.29;82.75
41254;BME280;26987;59.928;30.306;2022-12-18T05:26:17;102369.88;;;-6.11;82.47
41254;BME280;26987;59.928;30.306;2022-12-18T05:28:45;102369.66;;;-6.05;83.50
41254;BME280;26987;59.928;30.306;2022-12-18T05:31:13;102365.19;;;-6.03;82.14
41254;BME280;26987;59.928;30.306;2022-12-18T05:33:41;102365.97;;;-6.01;82.77
41254;BME280;26987;59.928;30.306;2022-12-18T05:36:10;102366.78;;;-5.99;82.37
41254;BME280;26987;59.928;30.306;2022-12-18T05:38:39;102368.47;;;-5.98;82.24
41254;BME280;26987;59.928;30.306;2022-12-18T05:41:07;102374.63;;;-5.99;82.98
41254;BME280;26987;59.928;30.306;2022-12-18T05:43:37;102359.19;;;-6.05;81.91
41254;BME280;26987;59.928;30.306;2022-12-18T05:46:05;102368.34;;;-5.95;82.33
41254;BME280;26987;59.928;30.306;2022-12-18T05:48:33;102344.63;;;-6.11;81.22
41254;BME280;26987;59.928;30.306;2022-12-18T05:51:06;102378.22;;;-6.01;82.32
41254;BME280;26987;59.928;30.306;2022-12-18T05:53:35;102369.75;;;-6.08;81.65
41254;BME280;26987;59.928;30.306;2022-12-18T05:56:06;102338.66;;;-6.38;82.40
41254;BME280;26987;59.928;30.306;2022-12-18T05:58:35;102350.72;;;-6.34;83.03
41254;BME280;26987;59.928;30.306;2022-12-18T06:01:08;102331.41;;;-6.54;82.48
41254;BME280;26987;59.928;30.306;2022-12-18T06:03:36;102362.50;;;-6.48;83.25
41254;BME280;26987;59.928;30.306;2022-12-18T06:06:12;102365.94;;;-6.47;83.44
41254;BME280;26987;59.928;30.306;2022-12-18T06:08:40;102377.31;;;-6.48;83.92
41254;BME280;26987;59.928;30.306;2022-12-18T06:11:09;102371.44;;;-6.55;84.73
41254;BME280;26987;59.928;30.306;2022-12-18T06:13:37;102377.34;;;-6.50;84.88
41254;BME280;26987;59.928;30.306;2022-12-18T06:16:05;102367.28;;;-6.61;84.51
41254;BME280;26987;59.928;30.306;2022-12-18T06:18:34;102387.91;;;-6.53;84.54
41254;BME280;26987;59.928;30.306;2022-12-18T06:21:07;102388.13;;;-6.59;84.51
41254;BME280;26987;59.928;30.306;2022-12-18T06:23:35;102379.00;;;-6.73;83.72
41254;BME280;26987;59.928;30.306;2022-12-18T06:26:04;102386.53;;;-6.63;84.02
41254;BME280;26987;59.928;30.306;2022-12-18T06:28:34;102382.22;;;-6.64;84.32
41254;BME280;26987;59.928;30.306;2022-12-18T06:31:02;102383.09;;;-6.65;83.73
41254;BME280;26987;59.928;30.306;2022-12-18T06:33:30;102373.78;;;-6.73;83.61
41254;BME280;26987;59.928;30.306;2022-12-18T06:36:00;102367.13;;;-6.81;83.34
41254;BME280;26987;59.928;30.306;2022-12-18T06:38:28;102375.94;;;-6.84;83.24
41254;BME280;26987;59.928;30.306;2022-12-18T06:40:55;102371.94;;;-6.94;83.21
41254;BME280;26987;59.928;30.306;2022-12-18T06:43:24;102334.72;;;-7.27;82.92
41254;BME280;26987;59.928;30.306;2022-12-18T06:45:58;102357.78;;;-7.14;83.63
41254;BME280;26987;59.928;30.306;2022-12-18T06:48:27;102373.69;;;-7.22;83.00
41254;BME280;26987;59.928;30.306;2022-12-18T06:50:55;102371.41;;;-7.33;83.55
41254;BME280;26987;59.928;30.306;2022-12-18T06:53:23;102373.53;;;-7.44;83.86
41254;BME280;26987;59.928;30.306;2022-12-18T06:55:51;102372.06;;;-7.53;84.39
41254;BME280;26987;59.928;30.306;2022-12-18T06:58:18;102371.38;;;-7.60;84.25
41254;BME280;26987;59.928;30.306;2022-12-18T07:00:46;102367.31;;;-7.69;85.09
41254;BME280;26987;59.928;30.306;2022-12-18T07:03:15;102374.53;;;-7.77;85.65
41254;BME280;26987;59.928;30.306;2022-12-18T07:05:43;102360.31;;;-7.95;85.52
41254;BME280;26987;59.928;30.306;2022-12-18T07:08:10;102373.19;;;-7.91;86.17
41254;BME280;26987;59.928;30.306;2022-12-18T07:10:41;102372.41;;;-7.94;86.62
41254;BME280;26987;59.928;30.306;2022-12-18T07:13:09;102348.47;;;-8.06;87.13
41254;BME280;26987;59.928;30.306;2022-12-18T07:15:37;102360.47;;;-8.02;86.82
41254;BME280;26987;59.928;30.306;2022-12-18T07:18:05;102372.31;;;-7.91;87.50
41254;BME280;26987;59.928;30.306;2022-12-18T07:20:34;102339.00;;;-8.10;87.39
41254;BME280;26987;59.928;30.306;2022-12-18T07:23:01;102369.78;;;-7.93;87.62
41254;BME280;26987;59.928;30.306;2022-12-18T07:25:29;102373.09;;;-7.88;87.70
41254;BME280;26987;59.928;30.306;2022-12-18T07:27:57;102366.91;;;-7.83;87.26
41254;BME280;26987;59.928;30.306;2022-12-18T07:30:28;102366.91;;;-7.83;86.96
41254;BME280;26987;59.928;30.306;2022-12-18T07:32:55;102379.16;;;-7.87;87.15
41254;BME280;26987;59.928;30.306;2022-12-18T07:35:23;102382.47;;;-7.82;86.98
41254;BME280;26987;59.928;30.306;2022-12-18T07:37:52;102380.91;;;-7.88;87.29
41254;BME280;26987;59.928;30.306;2022-12-18T07:40:20;102387.88;;;-7.88;86.79
41254;BME280;26987;59.928;30.306;2022-12-18T07:42:48;102329.81;;;-8.22;87.34
41254;BME280;26987;59.928;30.306;2022-12-18T07:45:15;102340.94;;;-8.17;87.30
41254;BME280;26987;59.928;30.306;2022-12-18T07:47:43;102379.47;;;-7.98;87.87
41254;BME280;26987;59.928;30.306;2022-12-18T07:50:11;102370.00;;;-8.01;87.36
41254;BME280;26987;59.928;30.306;2022-12-18T07:52:39;102381.94;;;-7.93;87.44
41254;BME280;26987;59.928;30.306;2022-12-18T07:55:08;102366.94;;;-7.85;87.65
41254;BME280;26987;59.928;30.306;2022-12-18T07:57:36;102372.06;;;-7.82;87.33
41254;BME280;26987;59.928;30.306;2022-12-18T08:00:05;102371.88;;;-7.76;87.28
41254;BME280;26987;59.928;30.306;2022-12-18T08:02:38;102356.03;;;-7.69;87.01
41254;BME280;26987;59.928;30.306;2022-12-18T08:05:06;102350.72;;;-7.66;86.87
41254;BME280;26987;59.928;30.306;2022-12-18T08:07:34;102338.34;;;-7.58;86.86
41254;BME280;26987;59.928;30.306;2022-12-18T08:10:02;102317.66;;;-7.64;86.97
41254;BME280;26987;59.928;30.306;2022-12-18T08:12:31;102320.78;;;-7.53;86.46
41254;BME280;26987;59.928;30.306;2022-12-18T08:14:59;102320.69;;;-7.50;86.93
41254;BME280;26987;59.928;30.306;2022-12-18T08:17:27;102325.59;;;-7.40;86.78
41254;BME280;26987;59.928;30.306;2022-12-18T08:19:54;102326.28;;;-7.33;86.13
41254;BME280;26987;59.928;30.306;2022-12-18T08:22:22;102326.84;;;-7.25;86.30
41254;BME280;26987;59.928;30.306;2022-12-18T08:24:50;102321.88;;;-7.33;85.44
41254;BME280;26987;59.928;30.306;2022-12-18T08:27:18;102317.38;;;-7.55;85.59
41254;BME280;26987;59.928;30.306;2022-12-18T08:29:47;102332.53;;;-7.68;86.97
41254;BME280;26987;59.928;30.306;2022-12-18T08:32:14;102340.41;;;-7.69;86.85
41254;BME280;26987;59.928;30.306;2022-12-18T08:34:42;102338.38;;;-7.60;87.05
41254;BME280;26987;59.928;30.306;2022-12-18T08:37:10;102332.22;;;-7.57;86.87
41254;BME280;26987;59.928;30.306;2022-12-18T08:39:37;102356.59;;;-7.31;86.11
41254;BME280;26987;59.928;30.306;2022-12-18T08:42:05;102347.72;;;-7.25;85.61
41254;BME280;26987;59.928;30.306;2022-12-18T08:44:51;102351.47;;;-7.07;84.78
41254;BME280;26987;59.928;30.306;2022-12-18T08:47:19;102347.94;;;-7.06;84.21
41254;BME280;26987;59.928;30.306;2022-12-18T08:49:46;102347.63;;;-6.97;83.60
41254;BME280;26987;59.928;30.306;2022-12-18T08:52:14;102340.47;;;-6.90;83.33
41254;BME280;26987;59.928;30.306;2022-12-18T08:54:42;102331.94;;;-6.95;83.30
41254;BME280;26987;59.928;30.306;2022-12-18T08:57:10;102337.00;;;-6.90;83.21
41254;BME280;26987;59.928;30.306;2022-12-18T08:59:37;102342.06;;;-6.86;83.50
41254;BME280;26987;59.928;30.306;2022-12-18T09:02:08;102344.50;;;-6.81;82.92
41254;BME280;26987;59.928;30.306;2022-12-18T09:04:36;102314.59;;;-6.96;82.88
41254;BME280;26987;59.928;30.306;2022-12-18T09:07:05;102328.84;;;-6.81;82.70
41254;BME280;26987;59.928;30.306;2022-12-18T09:09:33;102327.13;;;-6.82;82.49
41254;BME280;26987;59.928;30.306;2022-12-18T09:12:01;102322.03;;;-6.85;81.75
41254;BME280;26987;59.928;30.306;2022-12-18T09:14:29;102320.22;;;-6.83;82.34
41254;BME280;26987;59.928;30.306;2022-12-18T09:16:56;102327.84;;;-6.77;83.16
41254;BME280;26987;59.928;30.306;2022-12-18T09:19:25;102315.72;;;-6.78;81.94
41254;BME280;26987;59.928;30.306;2022-12-18T09:21:53;102319.78;;;-6.71;82.36
41254;BME280;26987;59.928;30.306;2022-12-18T09:24:21;102315.34;;;-6.68;81.97
41254;BME280;26987;59.928;30.306;2022-12-18T09:26:53;102319.78;;;-6.71;81.45
41254;BME280;26987;59.928;30.306;2022-12-18T09:29:20;102330.06;;;-6.66;81.29
41254;BME280;26987;59.928;30.306;2022-12-18T09:31:48;102323.72;;;-6.59;80.91
41254;BME280;26987;59.928;30.306;2022-12-18T09:34:16;102323.88;;;-6.63;81.37
41254;BME280;26987;59.928;30.306;2022-12-18T09:36:46;102325.78;;;-6.68;81.88
41254;BME280;26987;59.928;30.306;2022-12-18T09:39:13;102317.41;;;-6.77;81.55
41254;BME280;26987;59.928;30.306;2022-12-18T09:41:45;102304.66;;;-6.86;81.07
41254;BME280;26987;59.928;30.306;2022-12-18T09:44:21;102306.91;;;-7.01;81.33
41254;BME280;26987;59.928;30.306;2022-12-18T09:47:00;102306.31;;;-6.84;81.93
41254;BME280;26987;59.928;30.306;2022-12-18T09:49:30;102312.34;;;-6.81;81.11
41254;BME280;26987;59.928;30.306;2022-12-18T09:52:04;102310.53;;;-6.79;81.11
41254;BME280;26987;59.928;30.306;2022-12-18T09:54:35;102313.53;;;-6.90;80.66
41254;BME280;26987;59.928;30.306;2022-12-18T09:57:12;102308.31;;;-6.90;81.36
41254;BME280;26987;59.928;30.306;2022-12-18T09:59:41;102303.03;;;-6.89;81.23
41254;BME280;26987;59.928;30.306;2022-12-18T10:02:16;102304.47;;;-6.80;80.95
41254;BME280;26987;59.928;30.306;2022-12-18T10:04:48;102298.13;;;-6.73;81.20
41254;BME280;26987;59.928;30.306;2022-12-18T10:07:24;102290.19;;;-6.69;81.40
41254;BME280;26987;59.928;30.306;2022-12-18T10:10:02;102290.00;;;-6.65;80.69
41254;BME280;26987;59.928;30.306;2022-12-18T10:12:36;102281.97;;;-6.59;80.49
41254;BME280;26987;59.928;30.306;2022-12-18T10:15:14;102293.75;;;-6.48;80.54
41254;BME280;26987;59.928;30.306;2022-12-18T10:17:52;102286.66;;;-6.44;80.66
41254;BME280;26987;59.928;30.306;2022-12-18T10:20:28;102283.50;;;-6.53;80.58
41254;BME280;26987;59.928;30.306;2022-12-18T10:23:02;102276.47;;;-6.51;80.78
41254;BME280;26987;59.928;30.306;2022-12-18T10:25:34;102283.28;;;-6.47;80.65
41254;BME280;26987;59.928;30.306;2022-12-18T10:28:10;102279.56;;;-6.41;80.31
41254;BME280;26987;59.928;30.306;2022-12-18T10:30:40;102279.63;;;-6.42;80.86
41254;BME280;26987;59.928;30.306;2022-12-18T10:33:10;102278.03;;;-6.47;80.15
41254;BME280;26987;59.928;30.306;2022-12-18T10:35:42;102279.69;;;-6.44;80.13
41254;BME280;26987;59.928;30.306;2022-12-18T10:38:27;102287.06;;;-6.31;80.02
41254;BME280;26987;59.928;30.306;2022-12-18T10:40:56;102256.84;;;-6.61;80.58
41254;BME280;26987;59.928;30.306;2022-12-18T10:43:26;102282.25;;;-6.42;80.79
41254;BME280;26987;59.928;30.306;2022-12-18T10:46:12;102249.34;;;-6.47;80.84
41254;BME280;26987;59.928;30.306;2022-12-18T10:48:50;102284.28;;;-6.27;80.89
41254;BME280;26987;59.928;30.306;2022-12-18T10:51:24;102260.31;;;-6.38;80.13
41254;BME280;26987;59.928;30.306;2022-12-18T10:53:55;102281.66;;;-6.27;80.65
41254;BME280;26987;59.928;30.306;2022-12-18T10:56:26;102289.94;;;-6.15;80.67
41254;BME280;26987;59.928;30.306;2022-12-18T10:59:00;102266.59;;;-6.20;80.87
41254;BME280;26987;59.928;30.306;2022-12-18T11:01:32;102284.47;;;-6.09;79.73
41254;BME280;26987;59.928;30.306;2022-12-18T11:04:17;102268.13;;;-6.14;80.10
41254;BME280;26987;59.928;30.306;2022-12-18T11:06:57;102275.72;;;-6.08;80.17
41254;BME280;26987;59.928;30.306;2022-12-18T11:09:27;102274.88;;;-6.09;80.19
41254;BME280;26987;59.928;30.306;2022-12-18T11:11:56;102271.41;;;-6.09;80.04
41254;BME280;26987;59.928;30.306;2022-12-18T11:14:27;102261.25;;;-6.17;80.37
41254;BME280;26987;59.928;30.306;2022-12-18T11:16:56;102267.34;;;-6.16;79.88
41254;BME280;26987;59.928;30.306;2022-12-18T11:19:30;102285.75;;;-6.19;80.45
41254;BME280;26987;59.928;30.306;2022-12-18T11:22:02;102259.88;;;-6.26;80.65
41254;BME280;26987;59.928;30.306;2022-12-18T11:24:33;102257.00;;;-6.19;80.48
41254;BME280;26987;59.928;30.306;2022-12-18T11:27:04;102260.53;;;-6.21;80.85
41254;BME280;26987;59.928;30.306;2022-12-18T11:29:35;102251.00;;;-6.22;80.60
41254;BME280;26987;59.928;30.306;2022-12-18T11:32:30;102239.94;;;-6.28;81.38
41254;BME280;26987;59.928;30.306;2022-12-18T11:35:12;102240.97;;;-6.32;81.86
41254;BME280;26987;59.928;30.306;2022-12-18T11:37:46;102250.69;;;-6.36;81.94
41254;BME280;26987;59.928;30.306;2022-12-18T11:40:19;102228.16;;;-6.39;81.51
41254;BME280;26987;59.928;30.306;2022-12-18T11:42:53;102115.44;;;-6.95;81.97
41254;BME280;26987;59.928;30.306;2022-12-18T11:45:27;102231.94;;;-6.24;81.31
41254;BME280;26987;59.928;30.306;2022-12-18T11:47:59;102235.88;;;-6.13;81.88
41254;BME280;26987;59.928;30.306;2022-12-18T11:50:33;102222.72;;;-6.10;81.04
41254;BME280;26987;59.928;30.306;2022-12-18T11:53:11;102199.78;;;-6.26;81.94
41254;BME280;26987;59.928;30.306;2022-12-18T11:55:48;102218.25;;;-6.08;82.08
41254;BME280;26987;59.928;30.306;2022-12-18T11:58:27;102207.94;;;-6.11;82.28
41254;BME280;26987;59.928;30.306;2022-12-18T12:01:05;102205.19;;;-6.08;82.38
41254;BME280;26987;59.928;30.306;2022-12-18T12:03:48;102200.78;;;-6.06;82.68
41254;BME280;26987;59.928;30.306;2022-12-18T12:06:24;102196.81;;;-6.16;83.17
41254;BME280;26987;59.928;30.306;2022-12-18T12:09:05;102199.06;;;-6.07;83.43
41254;BME280;26987;59.928;30.306;2022-12-18T12:11:46;102196.72;;;-6.13;82.71
41254;BME280;26987;59.928;30.306;2022-12-18T12:14:31;102200.63;;;-6.03;83.26
41254;BME280;26987;59.928;30.306;2022-12-18T12:17:05;102186.19;;;-6.12;83.32
41254;BME280;26987;59.928;30.306;2022-12-18T12:19:44;102176.84;;;-6.17;83.44
41254;BME280;26987;59.928;30.306;2022-12-18T12:22:22;102188.75;;;-6.10;84.36
41254;BME280;26987;59.928;30.306;2022-12-18T12:25:05;102199.97;;;-6.08;84.28
41254;BME280;26987;59.928;30.306;2022-12-18T12:27:43;102193.97;;;-6.10;85.07
41254;BME280;26987;59.928;30.306;2022-12-18T12:30:19;102199.19;;;-6.10;84.68
41254;BME280;26987;59.928;30.306;2022-12-18T12:33:00;102202.81;;;-6.14;84.95
41254;BME280;26987;59.928;30.306;2022-12-18T12:35:42;102208.97;;;-6.15;85.25
41254;BME280;26987;59.928;30.306;2022-12-18T12:38:17;102207.63;;;-6.26;85.57
41254;BME280;26987;59.928;30.306;2022-12-18T12:40:51;102155.59;;;-6.53;85.78
41254;BME280;26987;59.928;30.306;2022-12-18T12:43:27;102203.09;;;-6.21;86.30
41254;BME280;26987;59.928;30.306;2022-12-18T12:45:57;102206.34;;;-6.15;85.87
41254;BME280;26987;59.928;30.306;2022-12-18T12:48:35;102203.69;;;-6.14;86.75
41254;BME280;26987;59.928;30.306;2022-12-18T12:51:09;102208.19;;;-6.17;86.00
41254;BME280;26987;59.928;30.306;2022-12-18T12:53:39;102203.88;;;-6.18;86.60
41254;BME280;26987;59.928;30.306;2022-12-18T12:56:10;102199.69;;;-6.23;86.50
41254;BME280;26987;59.928;30.306;2022-12-18T12:58:46;102191.50;;;-6.36;87.38
41254;BME280;26987;59.928;30.306;2022-12-18T13:01:25;102182.50;;;-6.51;87.61